Weather observations for the past three days for
Huntingburg
Imperial (Metric)
Date Time (edt) Wind (mph) Vis. (mi.) Weather Sky Cond. Temperature (ºF) Relative Humidity Wind Chill (°F) Heat Index (°F) Pressure Precipitation (in)
Air Dwpt 6 hour altimeter (in) sea level (mb) 1 hr 3 hr 6 hr
Max. Min.
01 22:56 SE 3 10.00 Fair CLR 77 77 100% 78 30.05 1017.2
01 21:56 SE 3 10.00 Fair CLR 80.1 75.9 87% 85 30.04 1016.9
01 20:56 SE 3 10.00 Fair CLR 82.9 75 77% 90 30.02 1016.2
01 19:56 SE 5 10.00 Fair CLR 88 75.9 97 88 68% 99 30.02 1016.3
01 18:56 S 6 10.00 Fair CLR 93.9 72 49% 102 30.03 1016.3
01 17:56 S 5 10.00 Mostly Cloudy BKN070 96.1 71.1 44% 104 30.02 1016.1
01 16:56 Calm 10.00 A Few Clouds FEW065 93.9 69.1 44% 99 30.03 1016.4
01 15:56 SW 3 10.00 Fair CLR 93 70 47% 99 30.05 1016.9
01 14:56 W 7 10.00 Fair CLR 95 72 47% 103 30.07 1017.5
01 13:56 W 8 10.00 Fair CLR 93.9 73 93.9 72 51% 103 30.08 1018.0
01 12:56 W 9 10.00 Fair CLR 93 73.9 54% 103 30.1 1018.6
01 11:56 W 9 10.00 Fair CLR 91 75 59% 102 30.11 1019.0
01 10:56 Vrbl 7 10.00 Fair CLR 87.1 75 67% 97 30.11 1019.0
01 09:56 SW 5 10.00 Fair CLR 82 75.9 82% 89 30.11 1019.3
01 08:56 S 6 10.00 Fair CLR 77 75 94% 78 30.12 1019.4
01 07:56 SE 6 10.00 Fair CLR 72 72 75 69.1 100% 30.1 1018.9
01 06:56 SE 3 8.00 Fair CLR 69.1 69.1 100% 30.09 1018.4
01 05:56 Calm 10.00 Fair CLR 71.1 71.1 100% 30.07 1017.8
01 04:56 Calm 10.00 Fair CLR 70 70 100% 30.06 1017.5
01 03:56 Calm 10.00 Fair CLR 71.1 71.1 100% 30.06 1017.3
01 02:56 Calm 10.00 Fair CLR 75 73 94% 73 30.06 1017.4
01 01:56 SE 5 10.00 Fair CLR 73 72 88 73 96% 30.07 1017.9
01 00:56 S 6 10.00 Fair CLR 75.9 73 91% 76 30.06 1017.5
31 23:56 SE 5 10.00 Fair CLR 75 73.9 96% 73 30.06 1017.5
31 22:56 Calm 9.00 Fair CLR 77 73.9 90% 78 30.06 1017.5
31 21:56 Calm 10.00 Fair CLR 77 75.9 96% 78 30.05 1017.3
31 20:56 S 3 10.00 Fair CLR 82 73 74% 87 30.04 1016.8
31 19:56 SW 5 10.00 Fair CLR 88 72 95 88 59% 95 30.03 1016.4
31 18:56 SW 6 10.00 Fair CLR 91.9 73 54% 101 30.03 1016.2
31 17:56 SW 8 10.00 Fair CLR 93.9 71.1 48% 101 30.04 1016.6
31 16:56 SW 8 10.00 A Few Clouds FEW060 93 72 50% 101 30.06 1017.2
31 15:56 SW 6 10.00 A Few Clouds FEW055 91.9 72 52% 100 30.07 1017.7
31 14:56 SW 12 10.00 Partly Cloudy SCT060 93 73 52% 102 30.09 1018.2
31 13:56 SW 8 10.00 A Few Clouds FEW050 93 73.9 93 71.1 54% 103 30.11 1018.9
31 12:56 SW 8 10.00 Partly Cloudy SCT044 91 75 59% 102 30.12 1019.4
31 11:56 Vrbl 6 10.00 Fair CLR 89.1 75.9 65% 100 30.13 1019.8
31 10:56 SW 12 10.00 Fair CLR 84.9 75 72% 93 30.13 1019.7
31 09:56 SW 8 10.00 Fair CLR 82 75 79% 89 30.12 1019.3
31 08:56 S 7 10.00 Fair CLR 77 75 94% 78 30.11 1019.2
31 07:56 SE 3 10.00 Fair CLR 72 72 73 70 100% 30.09 1018.4
31 06:56 S 5 10.00 Fair CLR 72 72 100% 30.08 1018.1
31 05:56 SE 3 10.00 Fair CLR 71.1 71.1 100% 30.07 1017.8
31 04:56 SE 3 10.00 Fair CLR 71.1 71.1 100% 30.07 1017.7
31 03:56 Calm 10.00 Fair CLR 71.1 71.1 100% 30.06 1017.3
31 02:56 SE 3 10.00 Fair CLR 71.1 71.1 100% 30.06 1017.6
31 01:56 Calm 10.00 Fair CLR 71.1 71.1 86 71.1 100% 30.07 1018.0
31 00:56 Calm 10.00 Fair CLR 71.1 71.1 100% 30.07 1017.7
30 23:56 SE 5 10.00 Fair CLR 72 72 100% 30.07 1017.6
30 22:56 SE 5 10.00 Fair CLR 73 72 96% 30.07 1017.6
30 21:56 SE 3 10.00 Fair CLR 75.9 72 88% 76 30.06 1017.3
30 20:56 SE 5 10.00 Fair CLR 78.1 73 85% 81 30.04 1016.8
30 19:56 S 3 10.00 Fair CLR 86 69.1 91.9 86 57% 90 30.04 1016.7
30 18:56 SW 6 10.00 Fair CLR 90 66.9 47% 93 30.04 1016.6
30 17:56 S 9 10.00 Fair CLR 91.9 64.9 41% 94 30.04 1016.8
30 16:56 S 3 10.00 Partly Cloudy SCT070 91.9 66 43% 95 30.06 1017.2
30 15:56 S 9 10.00 A Few Clouds FEW070 91.9 66.9 44% 95 30.07 1017.6
30 14:56 S 7 10.00 Mostly Cloudy BKN065 91 66.9 45% 94 30.09 1018.2
30 13:56 SW 7 10.00 A Few Clouds FEW055 91 66.9 91 66 45% 94 30.11 1019.1
30 12:56 SW 8 10.00 Fair CLR 89.1 71.1 55% 95 30.13 1019.5
30 11:56 S 7 10.00 Fair CLR 84.9 71.1 63% 90 30.13 1019.7
30 10:56 S 6 10.00 Fair CLR 82 71.1 69% 86 30.12 1019.6
30 09:56 S 7 10.00 Fair CLR 77 70 79% 79 30.11 1019.3
30 08:56 Calm 10.00 Fair CLR 72 71.1 97% 30.11 1019.2
30 07:56 SE 3 9.00 Fair CLR 66 66 69.1 63 100% 30.1 1019.0
30 06:56 SE 3 7.00 Fair CLR 64.9 64.9 100% 30.09 1018.5
30 05:56 Calm 5.00 Fog/Mist CLR 64 64 100% 30.09 1018.6
30 04:56 Calm 5.00 Fog/Mist CLR 64.9 64.9 100% 30.1 1018.7
30 03:56 Calm 10.00 Fair CLR 66 66 100% 30.09 1018.7
30 02:56 Calm 7.00 Fair CLR 66 66 100% 30.1 1018.8
30 01:56 Calm 10.00 Fair CLR 68 68 78.1 68 100% 30.11 1019.2
30 00:56 Calm 10.00 Fair CLR 68 68 100% 30.11 1018.9
29 23:56 Calm 10.00 Fair CLR 68 68 100% 30.1 1018.9
Date Time (edt) Wind (mph) Vis. (mi.) Weather Sky Cond. Air Dwpt Max. Min. Relative Humidity Wind Chill (°F) Heat Index (°F) altimeter (in) sea level (mb) 1 hr 3 hr 6 hr
6 hour
Temperature (ºF) Pressure Precipitation (in)